Time;durP1;ratioP1;P1;durP2;ratioP2;P2;SDS_P1;SDS_P2;PMS_P1;PMS_P2;Temp;Humidity;BMP_temperature;BMP_pressure;BME280_temperature;BME280_humidity;BME280_pressure;Samples;Min_cycle;Max_cycle;Signal;HPM_P1;HPM_P2
2023/09/17 00:01:59;;;;;;;15.63;10.10;;;;;;;;;;10245168;29;20412;-84
2023/09/17 00:07:03;;;;;;;12.82;9.98;;;;;;;;;;10245740;29;20491;-84
2023/09/17 00:12:07;;;;;;;15.40;9.82;;;;;;;;;;10246678;28;20498;-84
2023/09/17 00:17:10;;;;;;;15.05;11.18;;;;;;;;;;10247509;28;20424;-84
2023/09/17 00:22:14;;;;;;;14.60;9.40;;;;;;;;;;10279453;28;20545;-84
2023/09/17 00:27:18;;;;;;;16.60;9.55;;;;;;;;;;10282269;28;20493;-83
2023/09/17 00:32:20;;;;;;;14.38;10.38;;;;;;;;;;10285324;28;20486;-83
2023/09/17 00:37:22;;;;;;;12.98;9.20;;;;;;;;;;10282934;28;20407;-83
2023/09/17 00:42:26;;;;;;;15.35;10.40;;;;;;;;;;10283205;28;20492;-84
2023/09/17 00:47:29;;;;;;;17.30;12.50;;;;;;;;;;10286552;28;20462;-84
2023/09/17 00:52:33;;;;;;;18.23;12.25;;;;;;;;;;10284594;28;20993;-83
2023/09/17 00:57:38;;;;;;;18.75;13.18;;;;;;;;;;10284325;28;20422;-84
2023/09/17 01:02:42;;;;;;;20.02;13.35;;;;;;;;;;10280276;28;20426;-83
2023/09/17 01:07:45;;;;;;;20.50;13.70;;;;;;;;;;10282595;28;20532;-83
2023/09/17 01:12:49;;;;;;;18.77;13.27;;;;;;;;;;10285071;28;20470;-84
2023/09/17 01:17:54;;;;;;;20.67;14.50;;;;;;;;;;10296740;28;20893;-84
2023/09/17 01:23:00;;;;;;;20.37;14.20;;;;;;;;;;10321246;28;21660;-83
2023/09/17 01:28:06;;;;;;;22.37;14.70;;;;;;;;;;10319096;28;20928;-84
2023/09/17 01:33:10;;;;;;;19.60;14.20;;;;;;;;;;10322339;28;20425;-84
2023/09/17 01:38:16;;;;;;;19.60;14.30;;;;;;;;;;10324135;28;20477;-84
2023/09/17 01:43:20;;;;;;;21.13;14.75;;;;;;;;;;10321601;28;20475;-83
2023/09/17 01:48:25;;;;;;;21.48;14.07;;;;;;;;;;10323903;28;20460;-84
2023/09/17 01:53:28;;;;;;;20.05;14.52;;;;;;;;;;10319132;28;20512;-84
2023/09/17 01:58:33;;;;;;;19.30;14.20;;;;;;;;;;10321127;28;20513;-84
2023/09/17 02:03:36;;;;;;;19.48;13.25;;;;;;;;;;10320002;28;20432;-84
2023/09/17 02:08:38;;;;;;;20.20;13.60;;;;;;;;;;10317823;28;20525;-84
2023/09/17 02:13:42;;;;;;;17.13;12.73;;;;;;;;;;10323731;28;20413;-84
2023/09/17 02:18:46;;;;;;;18.83;12.73;;;;;;;;;;10323828;28;20524;-84
2023/09/17 02:23:48;;;;;;;17.40;13.18;;;;;;;;;;10323399;28;21168;-83
2023/09/17 02:28:52;;;;;;;18.33;12.30;;;;;;;;;;10324396;28;20479;-83
2023/09/17 02:33:54;;;;;;;18.27;13.50;;;;;;;;;;10326057;28;20421;-84
2023/09/17 02:38:57;;;;;;;16.60;12.68;;;;;;;;;;10330866;28;20491;-83
2023/09/17 02:44:02;;;;;;;19.17;12.27;;;;;;;;;;10331263;28;20456;-84
2023/09/17 02:49:05;;;;;;;15.70;11.70;;;;;;;;;;10327280;28;20491;-83
2023/09/17 02:54:07;;;;;;;16.77;12.30;;;;;;;;;;10331318;28;20763;-84
2023/09/17 02:59:11;;;;;;;16.50;12.77;;;;;;;;;;10330933;28;20449;-84
2023/09/17 03:04:13;;;;;;;18.38;12.68;;;;;;;;;;10331331;28;20490;-83
2023/09/17 03:09:16;;;;;;;16.60;12.27;;;;;;;;;;10330155;28;21040;-84
2023/09/17 03:14:22;;;;;;;17.07;11.90;;;;;;;;;;10326847;28;20409;-83
2023/09/17 03:19:26;;;;;;;17.20;12.37;;;;;;;;;;10330227;28;20413;-83
2023/09/17 03:24:28;;;;;;;18.17;12.27;;;;;;;;;;10329886;28;20429;-84
2023/09/17 03:29:32;;;;;;;16.60;11.83;;;;;;;;;;10330292;28;20928;-83
2023/09/17 03:34:34;;;;;;;16.55;11.63;;;;;;;;;;10330608;28;20444;-83
2023/09/17 03:39:37;;;;;;;16.53;12.17;;;;;;;;;;10329007;28;20900;-83
2023/09/17 03:44:41;;;;;;;16.70;11.75;;;;;;;;;;10329017;28;20480;-83
2023/09/17 03:49:46;;;;;;;15.77;11.68;;;;;;;;;;10329435;28;20503;-84
2023/09/17 03:54:48;;;;;;;16.17;11.70;;;;;;;;;;10328807;28;20424;-84
2023/09/17 03:59:52;;;;;;;15.68;11.52;;;;;;;;;;10329008;28;20475;-83
2023/09/17 04:04:54;;;;;;;16.33;11.63;;;;;;;;;;10328394;28;20486;-83
2023/09/17 04:09:57;;;;;;;16.40;11.93;;;;;;;;;;10328923;28;20432;-84
2023/09/17 04:15:02;;;;;;;16.45;11.75;;;;;;;;;;10328098;28;20812;-84
2023/09/17 04:20:09;;;;;;;18.60;12.50;;;;;;;;;;10327746;28;20451;-83
2023/09/17 04:25:12;;;;;;;18.47;13.17;;;;;;;;;;10327773;28;20979;-83
2023/09/17 04:30:16;;;;;;;19.70;14.57;;;;;;;;;;10326553;28;20454;-83
2023/09/17 04:35:19;;;;;;;23.70;14.10;;;;;;;;;;10324917;28;20408;-84
2023/09/17 04:40:25;;;;;;;20.93;13.93;;;;;;;;;;10325602;28;20468;-83
2023/09/17 04:45:37;;;;;;;20.17;14.20;;;;;;;;;;10320144;28;20499;-83
2023/09/17 04:50:42;;;;;;;20.98;14.55;;;;;;;;;;10325878;28;20495;-84
2023/09/17 04:55:45;;;;;;;21.98;14.15;;;;;;;;;;10325936;28;20880;-84
2023/09/17 05:00:49;;;;;;;22.60;15.27;;;;;;;;;;10324282;28;20491;-83
2023/09/17 05:05:51;;;;;;;23.48;14.65;;;;;;;;;;10326483;28;20405;-83
2023/09/17 05:10:54;;;;;;;21.48;14.00;;;;;;;;;;10325771;28;20553;-83
2023/09/17 05:15:57;;;;;;;21.58;13.60;;;;;;;;;;10326558;28;20473;-83
2023/09/17 05:21:00;;;;;;;19.92;14.00;;;;;;;;;;10325016;28;20424;-84
2023/09/17 05:26:02;;;;;;;21.77;13.90;;;;;;;;;;10321789;28;20405;-82
2023/09/17 05:31:06;;;;;;;23.90;14.60;;;;;;;;;;10325331;28;20542;-84
2023/09/17 05:36:08;;;;;;;23.85;14.82;;;;;;;;;;10325113;28;20409;-83
2023/09/17 05:41:12;;;;;;;20.47;14.20;;;;;;;;;;10324923;28;20754;-83
2023/09/17 05:46:15;;;;;;;22.02;14.35;;;;;;;;;;10323967;28;20770;-83
2023/09/17 05:51:18;;;;;;;22.65;14.35;;;;;;;;;;10320000;28;20476;-83
2023/09/17 05:56:20;;;;;;;21.97;14.27;;;;;;;;;;10323929;28;20408;-83
2023/09/17 06:01:24;;;;;;;23.63;14.40;;;;;;;;;;10323809;28;20413;-84
2023/09/17 06:06:26;;;;;;;24.23;14.32;;;;;;;;;;10323287;28;20444;-83
2023/09/17 06:11:28;;;;;;;23.53;15.37;;;;;;;;;;10331549;28;20467;-83
2023/09/17 06:16:32;;;;;;;23.73;15.25;;;;;;;;;;10331256;28;20483;-83
2023/09/17 06:21:34;;;;;;;25.95;15.18;;;;;;;;;;10330836;28;20514;-82
2023/09/17 06:26:37;;;;;;;25.70;16.73;;;;;;;;;;10331806;28;20416;-84
2023/09/17 06:31:41;;;;;;;24.65;15.55;;;;;;;;;;10332263;28;20908;-83
2023/09/17 06:36:43;;;;;;;27.88;16.52;;;;;;;;;;10330625;28;20452;-83
2023/09/17 06:41:45;;;;;;;25.80;15.73;;;;;;;;;;10331007;28;20416;-83
2023/09/17 06:46:49;;;;;;;27.00;16.05;;;;;;;;;;10329737;28;20483;-83
2023/09/17 06:51:52;;;;;;;24.93;15.00;;;;;;;;;;10331512;28;20483;-83
2023/09/17 06:56:54;;;;;;;20.83;13.55;;;;;;;;;;10331053;28;20948;-83
2023/09/17 07:01:58;;;;;;;21.27;13.73;;;;;;;;;;10330695;28;20417;-82
2023/09/17 07:07:00;;;;;;;22.33;14.07;;;;;;;;;;10329282;28;20463;-82
2023/09/17 07:12:03;;;;;;;21.80;13.90;;;;;;;;;;10330516;28;20483;-83
2023/09/17 07:17:07;;;;;;;22.00;14.13;;;;;;;;;;10331235;28;20457;-83
2023/09/17 07:22:11;;;;;;;21.30;13.97;;;;;;;;;;10329765;28;20417;-83
2023/09/17 07:27:15;;;;;;;23.10;14.20;;;;;;;;;;10329787;28;20877;-82
2023/09/17 07:32:18;;;;;;;22.08;14.75;;;;;;;;;;10325242;28;20909;-83
2023/09/17 07:37:21;;;;;;;26.33;15.38;;;;;;;;;;10329517;28;20405;-83
2023/09/17 07:42:23;;;;;;;23.77;14.82;;;;;;;;;;10329575;28;20452;-83
2023/09/17 07:47:27;;;;;;;24.80;14.60;;;;;;;;;;10328876;28;20489;-83
2023/09/17 07:52:29;;;;;;;22.27;15.25;;;;;;;;;;10329375;28;21067;-83
2023/09/17 07:57:32;;;;;;;25.67;16.30;;;;;;;;;;10325503;28;20750;-83
2023/09/17 08:02:35;;;;;;;24.98;16.13;;;;;;;;;;10325958;28;20507;-82
2023/09/17 08:07:39;;;;;;;28.33;16.13;;;;;;;;;;10328047;28;20479;-83
2023/09/17 08:12:42;;;;;;;29.92;16.70;;;;;;;;;;10327937;28;20446;-84
2023/09/17 08:17:45;;;;;;;25.17;15.05;;;;;;;;;;10327980;28;20909;-83
2023/09/17 08:22:48;;;;;;;27.88;15.15;;;;;;;;;;10324430;28;20477;-83
2023/09/17 08:27:50;;;;;;;23.23;14.18;;;;;;;;;;10327103;28;20507;-83
2023/09/17 08:32:54;;;;;;;22.80;13.93;;;;;;;;;;10317939;28;20983;-83
2023/09/17 08:37:56;;;;;;;22.80;14.07;;;;;;;;;;10327466;28;20968;-83
2023/09/17 08:42:59;;;;;;;23.80;13.73;;;;;;;;;;10320825;28;20513;-83
2023/09/17 08:48:03;;;;;;;21.27;12.95;;;;;;;;;;10325160;28;21039;-83
2023/09/17 08:53:08;;;;;;;17.08;11.55;;;;;;;;;;10326558;28;20545;-83
2023/09/17 08:58:15;;;;;;;11.82;8.20;;;;;;;;;;10326381;28;20424;-83
2023/09/17 09:03:21;;;;;;;17.63;10.30;;;;;;;;;;10325074;28;20441;-83
2023/09/17 09:08:25;;;;;;;15.20;9.97;;;;;;;;;;10323305;28;20428;-83
2023/09/17 09:13:29;;;;;;;11.47;7.40;;;;;;;;;;10302835;28;20476;-83
2023/09/17 09:18:32;;;;;;;12.68;8.20;;;;;;;;;;10311171;28;20518;-83
2023/09/17 09:23:35;;;;;;;9.90;6.93;;;;;;;;;;10316281;28;20502;-83
2023/09/17 09:28:38;;;;;;;11.50;7.07;;;;;;;;;;10313857;28;20522;-84
2023/09/17 09:33:43;;;;;;;8.93;6.83;;;;;;;;;;10318342;28;20766;-83
2023/09/17 09:38:45;;;;;;;7.30;6.10;;;;;;;;;;10320130;28;20436;-84
2023/09/17 09:43:49;;;;;;;8.95;5.95;;;;;;;;;;10310420;28;20444;-81
2023/09/17 09:48:53;;;;;;;9.10;6.38;;;;;;;;;;10316374;28;20460;-82
2023/09/17 09:53:56;;;;;;;8.07;5.80;;;;;;;;;;10310924;28;20880;-82
2023/09/17 09:59:00;;;;;;;10.10;6.75;;;;;;;;;;10319306;28;20439;-81
2023/09/17 10:04:06;;;;;;;9.33;6.70;;;;;;;;;;10317063;28;21115;-82
2023/09/17 10:09:10;;;;;;;9.03;6.80;;;;;;;;;;10312851;28;20530;-82
2023/09/17 10:14:15;;;;;;;9.93;6.90;;;;;;;;;;10303708;28;20472;-82
2023/09/17 10:19:21;;;;;;;12.38;7.38;;;;;;;;;;10308983;28;20921;-82
2023/09/17 10:24:24;;;;;;;13.52;8.68;;;;;;;;;;10310959;28;20490;-82
2023/09/17 10:29:28;;;;;;;14.33;8.10;;;;;;;;;;10309536;28;20523;-82
2023/09/17 10:34:35;;;;;;;11.30;7.23;;;;;;;;;;10309524;28;20459;-82
2023/09/17 10:39:38;;;;;;;8.88;7.32;;;;;;;;;;10296131;28;21216;-82
2023/09/17 10:44:43;;;;;;;9.98;7.05;;;;;;;;;;10308553;28;21016;-81
2023/09/17 10:49:47;;;;;;;9.77;7.28;;;;;;;;;;10310227;28;20933;-81
2023/09/17 10:54:50;;;;;;;9.50;7.20;;;;;;;;;;10314644;28;20534;-82
2023/09/17 10:59:55;;;;;;;9.07;6.78;;;;;;;;;;10321387;28;20615;-83
2023/09/17 11:05:00;;;;;;;8.80;6.80;;;;;;;;;;10320127;28;20941;-82
2023/09/17 11:10:04;;;;;;;9.10;7.10;;;;;;;;;;10319640;28;20821;-81
2023/09/17 11:15:07;;;;;;;8.18;6.50;;;;;;;;;;10318426;28;20964;-81
2023/09/17 11:20:13;;;;;;;9.57;6.57;;;;;;;;;;10316574;28;20452;-82
2023/09/17 11:25:32;;;;;;;8.27;6.18;;;;;;;;;;10320153;28;20440;-86
2023/09/17 11:30:58;;;;;;;9.20;7.20;;;;;;;;;;10323750;28;20540;-82
2023/09/17 11:36:03;;;;;;;9.27;7.40;;;;;;;;;;10333324;28;20475;-82
2023/09/17 11:41:08;;;;;;;10.10;7.27;;;;;;;;;;10343375;28;20467;-83
2023/09/17 11:46:12;;;;;;;11.05;8.25;;;;;;;;;;10327015;28;20589;-82
2023/09/17 11:51:23;;;;;;;11.10;7.72;;;;;;;;;;10325612;28;20515;-83
2023/09/17 11:56:28;;;;;;;10.10;7.68;;;;;;;;;;10327106;28;20448;-82
2023/09/17 12:01:33;;;;;;;10.70;7.43;;;;;;;;;;10328697;28;20467;-83
2023/09/17 12:06:39;;;;;;;9.13;7.60;;;;;;;;;;10326505;28;20420;-83
2023/09/17 12:11:42;;;;;;;10.03;7.93;;;;;;;;;;10328086;28;20460;-82
2023/09/17 12:16:48;;;;;;;11.00;7.70;;;;;;;;;;10327212;28;20519;-83
2023/09/17 12:22:00;;;;;;;11.77;7.78;;;;;;;;;;10325834;28;20412;-83
2023/09/17 12:27:24;;;;;;;9.15;7.32;;;;;;;;;;10322457;28;20409;-82
2023/09/17 12:32:33;;;;;;;10.15;7.63;;;;;;;;;;10326406;28;20425;-82
2023/09/17 12:37:36;;;;;;;9.77;7.57;;;;;;;;;;10327226;28;20412;-82
2023/09/17 12:42:39;;;;;;;10.13;7.32;;;;;;;;;;10327366;28;20467;-82
2023/09/17 12:47:41;;;;;;;9.60;7.90;;;;;;;;;;10324151;28;20449;-84
2023/09/17 12:52:45;;;;;;;7.65;6.75;;;;;;;;;;10324666;28;20432;-84
2023/09/17 12:57:49;;;;;;;9.97;7.23;;;;;;;;;;10326587;28;20452;-83
2023/09/17 13:02:53;;;;;;;8.77;6.90;;;;;;;;;;10325642;28;20503;-84
2023/09/17 13:07:57;;;;;;;8.55;6.60;;;;;;;;;;10325838;28;20471;-84
2023/09/17 13:13:04;;;;;;;9.40;7.40;;;;;;;;;;10325955;28;20452;-84
2023/09/17 13:18:07;;;;;;;11.57;6.72;;;;;;;;;;10323329;28;20512;-84
2023/09/17 13:23:11;;;;;;;7.77;6.67;;;;;;;;;;10322985;28;20481;-83
2023/09/17 13:28:16;;;;;;;8.53;6.57;;;;;;;;;;10311215;28;20487;-84
2023/09/17 13:33:19;;;;;;;9.17;6.27;;;;;;;;;;10323082;28;20553;-83
2023/09/17 13:38:22;;;;;;;7.05;5.72;;;;;;;;;;10322814;28;20436;-83
2023/09/17 13:43:26;;;;;;;9.85;6.35;;;;;;;;;;10314636;28;20932;-84
2023/09/17 13:48:29;;;;;;;9.15;5.85;;;;;;;;;;10316898;28;20456;-84
2023/09/17 13:53:33;;;;;;;6.53;5.70;;;;;;;;;;10314844;28;21265;-86
2023/09/17 13:58:35;;;;;;;6.78;5.28;;;;;;;;;;10312353;28;20522;-84
2023/09/17 14:03:38;;;;;;;6.43;5.50;;;;;;;;;;10315048;28;20468;-86
2023/09/17 14:08:41;;;;;;;9.88;5.72;;;;;;;;;;10316032;28;20456;-84
2023/09/17 14:13:44;;;;;;;6.30;5.03;;;;;;;;;;10316794;28;21006;-86
2023/09/17 14:18:47;;;;;;;6.68;5.13;;;;;;;;;;10316488;28;20551;-86
2023/09/17 14:23:51;;;;;;;6.18;4.97;;;;;;;;;;10317066;28;20448;-86
2023/09/17 14:28:53;;;;;;;10.30;7.93;;;;;;;;;;10316952;28;20424;-86
2023/09/17 14:33:56;;;;;;;7.73;6.00;;;;;;;;;;10324529;28;20500;-88
2023/09/17 14:39:00;;;;;;;5.95;4.63;;;;;;;;;;10324551;28;20495;-87
2023/09/17 14:44:02;;;;;;;6.50;4.97;;;;;;;;;;10322019;28;20425;-85
2023/09/17 14:49:05;;;;;;;5.30;4.80;;;;;;;;;;10322460;28;20428;-87
2023/09/17 14:54:09;;;;;;;5.97;4.90;;;;;;;;;;10326029;28;20468;-86
2023/09/17 14:59:11;;;;;;;6.07;5.13;;;;;;;;;;10324044;28;20425;-85
2023/09/17 15:04:14;;;;;;;6.78;4.72;;;;;;;;;;10323164;28;20452;-86
2023/09/17 15:09:18;;;;;;;8.00;5.07;;;;;;;;;;10318293;28;21584;-86
2023/09/17 15:14:21;;;;;;;7.70;4.73;;;;;;;;;;10321991;28;20453;-85
2023/09/17 15:19:24;;;;;;;7.38;5.07;;;;;;;;;;10321188;28;20944;-86
2023/09/17 15:24:28;;;;;;;5.55;4.72;;;;;;;;;;10321835;28;20442;-86
2023/09/17 15:29:31;;;;;;;5.88;4.57;;;;;;;;;;10320193;28;20526;-84
2023/09/17 15:34:35;;;;;;;6.63;5.47;;;;;;;;;;10313040;28;20921;-85
2023/09/17 15:39:39;;;;;;;7.13;5.80;;;;;;;;;;10315402;28;20522;-85
2023/09/17 15:44:42;;;;;;;7.07;6.18;;;;;;;;;;10318805;28;20507;-85
2023/09/17 15:49:46;;;;;;;6.88;6.03;;;;;;;;;;10308605;28;20464;-84
2023/09/17 15:54:50;;;;;;;8.35;6.35;;;;;;;;;;10311523;28;20440;-85
2023/09/17 15:59:52;;;;;;;6.97;5.83;;;;;;;;;;10307247;28;20461;-85
2023/09/17 16:04:55;;;;;;;8.10;6.10;;;;;;;;;;10314466;28;20457;-84
2023/09/17 16:09:59;;;;;;;8.45;6.20;;;;;;;;;;10313150;28;22336;-84
2023/09/17 16:15:01;;;;;;;8.87;5.53;;;;;;;;;;10314627;28;20511;-85
2023/09/17 16:20:04;;;;;;;6.35;5.75;;;;;;;;;;10312445;28;21007;-84
2023/09/17 16:25:10;;;;;;;6.32;5.35;;;;;;;;;;10311504;28;21019;-85
2023/09/17 16:30:15;;;;;;;7.25;5.53;;;;;;;;;;10305254;28;20453;-85
2023/09/17 16:35:17;;;;;;;6.30;5.55;;;;;;;;;;10301609;28;21134;-85
2023/09/17 16:40:21;;;;;;;7.65;5.25;;;;;;;;;;10315642;28;20510;-86
2023/09/17 16:45:23;;;;;;;5.63;4.70;;;;;;;;;;10323472;28;20448;-83
2023/09/17 16:50:27;;;;;;;5.72;5.05;;;;;;;;;;10321120;28;20479;-84
2023/09/17 16:55:30;;;;;;;6.90;5.22;;;;;;;;;;10324104;28;20444;-83
2023/09/17 17:00:33;;;;;;;6.10;5.17;;;;;;;;;;10323848;28;20900;-84
2023/09/17 17:05:35;;;;;;;5.68;4.93;;;;;;;;;;10319690;28;20522;-84
2023/09/17 17:10:40;;;;;;;5.85;5.25;;;;;;;;;;10321529;28;20924;-84
2023/09/17 17:15:42;;;;;;;7.85;5.13;;;;;;;;;;10322663;28;20499;-84
2023/09/17 17:20:45;;;;;;;6.22;5.53;;;;;;;;;;10325395;28;20448;-83
2023/09/17 17:25:48;;;;;;;8.45;6.13;;;;;;;;;;10325945;28;20413;-84
2023/09/17 17:30:51;;;;;;;7.53;5.70;;;;;;;;;;10321069;28;20510;-83
2023/09/17 17:35:53;;;;;;;7.87;6.10;;;;;;;;;;10326649;28;20417;-84
2023/09/17 17:40:57;;;;;;;9.10;5.80;;;;;;;;;;10324030;28;20451;-83
2023/09/17 17:45:59;;;;;;;10.60;7.07;;;;;;;;;;10325223;28;20479;-83
2023/09/17 17:51:01;;;;;;;8.80;6.83;;;;;;;;;;10324764;28;20495;-84
2023/09/17 17:56:06;;;;;;;8.40;6.88;;;;;;;;;;10325270;28;20409;-83
2023/09/17 18:01:08;;;;;;;9.50;7.38;;;;;;;;;;10324744;28;20994;-84
2023/09/17 18:06:11;;;;;;;8.90;7.13;;;;;;;;;;10324436;28;20413;-83
2023/09/17 18:11:15;;;;;;;8.15;6.88;;;;;;;;;;10327447;28;20424;-83
2023/09/17 18:16:17;;;;;;;9.05;6.85;;;;;;;;;;10327180;28;20502;-83
2023/09/17 18:21:20;;;;;;;9.20;7.18;;;;;;;;;;10324394;28;20448;-83
2023/09/17 18:26:26;;;;;;;10.23;6.97;;;;;;;;;;10324243;28;20408;-83
2023/09/17 18:31:28;;;;;;;10.17;7.33;;;;;;;;;;10321140;28;20522;-83
2023/09/17 18:36:31;;;;;;;9.43;7.28;;;;;;;;;;10322184;28;20460;-83
2023/09/17 18:41:35;;;;;;;10.55;7.82;;;;;;;;;;10322111;28;20413;-84
2023/09/17 18:46:38;;;;;;;11.55;8.10;;;;;;;;;;10320462;28;20444;-84
2023/09/17 18:51:40;;;;;;;11.65;8.52;;;;;;;;;;10320711;28;20531;-83
2023/09/17 18:56:44;;;;;;;11.13;8.27;;;;;;;;;;10323935;28;20417;-83
2023/09/17 19:01:46;;;;;;;11.40;8.20;;;;;;;;;;10323901;28;20904;-83
2023/09/17 19:06:49;;;;;;;11.23;9.07;;;;;;;;;;10323895;28;20409;-83
2023/09/17 19:11:52;;;;;;;10.40;9.07;;;;;;;;;;10323644;28;20464;-83
2023/09/17 19:16:55;;;;;;;12.40;8.93;;;;;;;;;;10327311;28;20909;-84
2023/09/17 19:21:57;;;;;;;12.02;9.18;;;;;;;;;;10333362;28;20412;-84
2023/09/17 19:27:01;;;;;;;9.60;7.88;;;;;;;;;;10330287;28;20479;-84
2023/09/17 19:32:03;;;;;;;11.27;8.80;;;;;;;;;;10329798;28;20507;-84
2023/09/17 19:37:07;;;;;;;9.45;7.78;;;;;;;;;;10329935;28;20416;-84
2023/09/17 19:42:12;;;;;;;11.17;8.67;;;;;;;;;;10329103;28;20421;-84
2023/09/17 19:47:14;;;;;;;10.10;7.93;;;;;;;;;;10328642;28;20413;-84
2023/09/17 19:52:16;;;;;;;11.52;8.93;;;;;;;;;;10328371;28;20522;-84
2023/09/17 19:57:21;;;;;;;12.70;8.77;;;;;;;;;;10328965;28;20432;-83
2023/09/17 20:02:26;;;;;;;11.63;9.73;;;;;;;;;;10329167;28;20475;-83
2023/09/17 20:07:31;;;;;;;13.98;10.27;;;;;;;;;;10329249;28;20785;-84
2023/09/17 20:12:34;;;;;;;14.60;10.70;;;;;;;;;;10328916;28;20479;-84
2023/09/17 20:17:36;;;;;;;15.25;10.80;;;;;;;;;;10328628;28;20448;-84
2023/09/17 20:22:43;;;;;;;11.90;9.52;;;;;;;;;;10357245;28;20428;-83
2023/09/17 20:27:57;;;;;;;14.20;10.55;;;;;;;;;;10333888;28;20421;-84
2023/09/17 20:32:59;;;;;;;13.55;10.13;;;;;;;;;;10326667;28;20460;-84
2023/09/17 20:38:01;;;;;;;12.10;9.50;;;;;;;;;;10327508;28;20452;-84
2023/09/17 20:43:07;;;;;;;14.23;9.95;;;;;;;;;;10324042;28;20898;-83
2023/09/17 20:48:09;;;;;;;12.15;9.80;;;;;;;;;;10326324;28;20412;-83
2023/09/17 20:53:11;;;;;;;14.23;10.63;;;;;;;;;;10327013;28;20495;-83
2023/09/17 20:58:16;;;;;;;18.75;13.73;;;;;;;;;;10327102;28;20400;-83
2023/09/17 21:03:18;;;;;;;20.75;15.10;;;;;;;;;;10323038;28;20421;-84
2023/09/17 21:08:20;;;;;;;23.60;15.43;;;;;;;;;;10327163;28;20881;-83
2023/09/17 21:13:25;;;;;;;20.83;15.30;;;;;;;;;;10326512;28;20456;-84
2023/09/17 21:18:27;;;;;;;22.08;16.63;;;;;;;;;;10325099;28;20927;-83
2023/09/17 21:23:29;;;;;;;22.33;16.15;;;;;;;;;;10326410;28;20463;-83
2023/09/17 21:28:33;;;;;;;24.77;17.17;;;;;;;;;;10326792;28;20413;-83
2023/09/17 21:33:35;;;;;;;22.42;16.42;;;;;;;;;;10316409;28;20491;-83
2023/09/17 21:38:38;;;;;;;23.30;16.43;;;;;;;;;;10311845;28;20436;-83
2023/09/17 21:43:42;;;;;;;24.35;17.48;;;;;;;;;;10318461;28;20523;-82
2023/09/17 21:48:45;;;;;;;24.10;17.08;;;;;;;;;;10318825;28;20448;-83
2023/09/17 21:53:48;;;;;;;24.05;16.65;;;;;;;;;;10319955;28;20514;-82
2023/09/17 21:58:52;;;;;;;24.73;17.02;;;;;;;;;;10314250;28;20450;-82
2023/09/17 22:03:54;;;;;;;22.00;16.33;;;;;;;;;;10307323;28;20892;-83
2023/09/17 22:08:57;;;;;;;22.23;16.70;;;;;;;;;;10318232;28;20487;-83
2023/09/17 22:14:00;;;;;;;23.75;16.90;;;;;;;;;;10321163;28;20929;-83
2023/09/17 22:19:03;;;;;;;23.65;17.17;;;;;;;;;;10316023;28;20925;-83
2023/09/17 22:24:07;;;;;;;23.40;16.47;;;;;;;;;;10302431;28;20452;-84
2023/09/17 22:29:10;;;;;;;24.80;17.13;;;;;;;;;;10321255;28;20412;-84
2023/09/17 22:34:13;;;;;;;26.77;16.80;;;;;;;;;;10321604;28;20490;-83
2023/09/17 22:39:15;;;;;;;25.30;17.35;;;;;;;;;;10318248;28;20448;-84
2023/09/17 22:44:19;;;;;;;24.92;16.92;;;;;;;;;;10316653;28;20511;-84
2023/09/17 22:49:22;;;;;;;24.90;17.70;;;;;;;;;;10322187;28;20487;-84
2023/09/17 22:54:25;;;;;;;25.23;17.45;;;;;;;;;;10329600;28;20847;-84
2023/09/17 22:59:29;;;;;;;27.38;18.17;;;;;;;;;;10326067;28;20433;-84
2023/09/17 23:04:32;;;;;;;24.55;17.15;;;;;;;;;;10327179;28;20502;-83
2023/09/17 23:09:34;;;;;;;25.92;17.58;;;;;;;;;;10328302;28;20440;-84
2023/09/17 23:14:38;;;;;;;23.17;16.58;;;;;;;;;;10329836;28;20463;-83
2023/09/17 23:19:42;;;;;;;24.35;16.17;;;;;;;;;;10305695;23;20420;-89
2023/09/17 23:24:46;;;;;;;22.52;16.35;;;;;;;;;;10304638;28;20414;-88
2023/09/17 23:29:50;;;;;;;24.00;17.20;;;;;;;;;;10310412;28;20408;-89
2023/09/17 23:34:52;;;;;;;24.53;17.10;;;;;;;;;;10304285;28;20434;-88
2023/09/17 23:39:54;;;;;;;23.17;17.00;;;;;;;;;;10313037;28;20416;-89
2023/09/17 23:44:58;;;;;;;24.33;17.08;;;;;;;;;;10318064;28;20485;-88
2023/09/17 23:50:00;;;;;;;24.33;16.53;;;;;;;;;;10312033;28;20411;-89
2023/09/17 23:55:03;;;;;;;22.35;16.10;;;;;;;;;;10307272;28;20469;-89
